createdAt,value
2022-10-28T00:00:31.511Z,2.85
2022-10-28T00:03:00.864Z,3.30
2022-10-28T00:05:28.664Z,2.88
2022-10-28T00:07:55.440Z,2.97
2022-10-28T00:10:22.204Z,3.40
2022-10-28T00:12:48.748Z,3.10
2022-10-28T00:15:15.393Z,3.10
2022-10-28T00:17:41.955Z,2.65
2022-10-28T00:20:09.300Z,2.67
2022-10-28T00:22:35.935Z,3.10
2022-10-28T00:25:02.484Z,2.95
2022-10-28T00:27:29.887Z,3.28
2022-10-28T00:29:57.007Z,3.03
2022-10-28T00:32:23.589Z,3.47
2022-10-28T00:34:50.168Z,3.58
2022-10-28T00:37:16.712Z,3.28
2022-10-28T00:39:43.689Z,3.53
2022-10-28T00:42:10.587Z,3.90
2022-10-28T00:44:50.913Z,3.30
2022-10-28T00:47:52.481Z,3.33
2022-10-28T00:50:19.703Z,3.78
2022-10-28T00:52:48.986Z,3.42
2022-10-28T00:55:16.364Z,3.35
2022-10-28T00:57:44.199Z,3.28
2022-10-28T01:00:11.647Z,3.40
2022-10-28T01:02:44.734Z,3.20
2022-10-28T01:05:13.576Z,3.25
2022-10-28T01:07:40.411Z,3.00
2022-10-28T01:10:08.025Z,3.90
2022-10-28T01:12:45.990Z,3.03
2022-10-28T01:15:24.720Z,3.45
2022-10-28T01:18:26.931Z,3.20
2022-10-28T01:21:24.028Z,3.47
2022-10-28T01:24:03.322Z,4.03
2022-10-28T01:26:35.683Z,3.90
2022-10-28T01:29:30.136Z,3.58
2022-10-28T01:32:04.296Z,3.10
2022-10-28T01:34:53.817Z,3.30
2022-10-28T01:37:42.216Z,3.40
2022-10-28T01:42:44.785Z,3.90
2022-10-28T01:45:26.625Z,3.38
2022-10-28T01:48:03.232Z,3.60
2022-10-28T01:50:38.922Z,3.50
2022-10-28T01:53:11.697Z,3.60
2022-10-28T01:55:44.348Z,3.03
2022-10-28T01:58:13.904Z,3.35
2022-10-28T02:00:41.190Z,3.50
2022-10-28T02:03:08.952Z,3.60
2022-10-28T02:05:44.612Z,3.20
2022-10-28T02:08:20.332Z,3.85
2022-10-28T02:11:02.151Z,3.58
2022-10-28T02:14:00.619Z,3.20
2022-10-28T02:16:33.040Z,3.50
2022-10-28T02:19:24.944Z,3.38
2022-10-28T02:21:54.456Z,3.75
2022-10-28T02:24:30.135Z,3.63
2022-10-28T02:27:31.808Z,3.60
2022-10-28T02:30:12.509Z,3.58
2022-10-28T02:32:43.188Z,4.22
2022-10-28T02:35:14.648Z,4.72
2022-10-28T02:37:42.351Z,4.57
2022-10-28T02:40:14.371Z,3.97
2022-10-28T02:42:49.019Z,4.18
2022-10-28T02:45:38.404Z,4.63
2022-10-28T02:48:08.624Z,4.93
2022-10-28T02:50:38.519Z,5.75
2022-10-28T02:53:29.768Z,4.50
2022-10-28T02:55:57.740Z,5.00
2022-10-28T02:58:24.300Z,4.25
2022-10-28T03:00:51.092Z,4.70
2022-10-28T03:03:17.860Z,4.63
2022-10-28T03:05:44.779Z,5.40
2022-10-28T03:08:11.303Z,4.72
2022-10-28T03:10:37.915Z,4.50
2022-10-28T03:13:04.452Z,4.75
2022-10-28T03:15:30.999Z,4.63
2022-10-28T03:17:57.529Z,4.32
2022-10-28T03:20:24.121Z,4.25
2022-10-28T03:22:51.212Z,4.60
2022-10-28T03:25:17.970Z,4.32
2022-10-28T03:27:44.521Z,4.82
2022-10-28T03:30:11.372Z,4.13
2022-10-28T03:32:38.032Z,4.13
2022-10-28T03:35:05.173Z,3.95
2022-10-28T03:37:31.729Z,4.40
2022-10-28T03:40:01.235Z,3.75
2022-10-28T03:42:28.164Z,3.65
2022-10-28T03:44:54.759Z,5.95
2022-10-28T03:47:21.297Z,4.60
2022-10-28T03:49:47.851Z,4.10
2022-10-28T03:52:14.392Z,4.22
2022-10-28T03:54:40.922Z,3.30
2022-10-28T03:57:07.520Z,3.75
2022-10-28T03:59:34.084Z,4.50
2022-10-28T04:02:00.853Z,3.80
2022-10-28T04:04:29.991Z,3.88
2022-10-28T04:06:57.950Z,4.32
2022-10-28T04:09:24.481Z,3.45
2022-10-28T04:11:51.134Z,3.63
2022-10-28T04:14:17.839Z,3.50
2022-10-28T04:16:44.400Z,4.20
2022-10-28T04:19:10.940Z,4.18
2022-10-28T04:21:37.548Z,4.05
2022-10-28T04:24:04.368Z,4.00
2022-10-28T04:26:31.963Z,3.55
2022-10-28T04:28:58.685Z,4.13
2022-10-28T04:31:25.228Z,4.15
2022-10-28T04:33:51.815Z,3.83
2022-10-28T04:36:19.189Z,4.07
2022-10-28T04:38:45.805Z,4.10
2022-10-28T04:41:13.741Z,3.67
2022-10-28T04:43:40.386Z,3.80
2022-10-28T04:46:06.984Z,3.75
2022-10-28T04:48:34.176Z,3.50
2022-10-28T04:51:00.792Z,3.75
2022-10-28T04:53:27.319Z,3.72
2022-10-28T04:55:58.224Z,3.13
2022-10-28T04:58:25.804Z,3.28
2022-10-28T05:00:52.444Z,3.83
2022-10-28T05:03:18.999Z,3.65
2022-10-28T05:05:45.592Z,3.42
2022-10-28T05:08:12.142Z,3.65
2022-10-28T05:10:38.687Z,4.30
2022-10-28T05:13:05.318Z,4.20
2022-10-28T05:15:31.904Z,3.75
2022-10-28T05:17:58.532Z,3.85
2022-10-28T05:20:25.100Z,3.50
2022-10-28T05:22:53.957Z,4.20
2022-10-28T05:25:21.352Z,4.13
2022-10-28T05:27:47.998Z,4.30
2022-10-28T05:30:14.842Z,3.78
2022-10-28T05:32:41.510Z,4.50
2022-10-28T05:35:08.765Z,4.85
2022-10-28T05:37:35.396Z,5.88
2022-10-28T05:40:02.016Z,5.60
2022-10-28T05:42:28.563Z,5.40
2022-10-28T05:44:55.175Z,4.15
2022-10-28T05:47:21.717Z,5.10
2022-10-28T05:49:48.324Z,4.07
2022-10-28T05:52:14.923Z,3.88
2022-10-28T05:54:41.507Z,3.95
2022-10-28T05:57:08.089Z,3.80
2022-10-28T05:59:34.746Z,3.88
2022-10-28T06:02:01.279Z,4.00
2022-10-28T06:04:27.885Z,4.45
2022-10-28T06:06:56.240Z,4.25
2022-10-28T06:09:22.786Z,4.60
2022-10-28T06:11:47.837Z,3.83
2022-10-28T06:14:14.479Z,4.57
2022-10-28T06:16:42.435Z,3.80
2022-10-28T06:19:09.086Z,3.58
2022-10-28T06:21:35.641Z,4.00
2022-10-28T06:24:02.576Z,3.35
2022-10-28T06:26:29.220Z,3.80
2022-10-28T06:28:55.758Z,4.60
2022-10-28T06:31:22.386Z,4.38
2022-10-28T06:33:49.009Z,3.58
2022-10-28T06:36:15.573Z,3.75
2022-10-28T06:38:42.520Z,4.00
2022-10-28T06:41:09.112Z,3.70
2022-10-28T06:43:35.678Z,4.10
2022-10-28T06:46:03.857Z,3.70
2022-10-28T06:48:32.200Z,3.45
2022-10-28T06:50:58.860Z,4.88
2022-10-28T06:53:26.242Z,4.90
2022-10-28T06:55:57.007Z,4.80
2022-10-28T06:58:25.128Z,3.92
2022-10-28T07:00:52.438Z,3.63
2022-10-28T07:03:19.478Z,4.30
2022-10-28T07:05:47.273Z,3.75
2022-10-28T07:08:14.508Z,4.30
2022-10-28T07:10:41.643Z,14.07
2022-10-28T07:13:08.184Z,18.05
2022-10-28T07:15:34.830Z,18.45
2022-10-28T07:18:02.609Z,11.20
2022-10-28T07:20:31.976Z,8.02
2022-10-28T07:23:02.487Z,5.45
2022-10-28T07:25:30.634Z,5.53
2022-10-28T07:27:58.386Z,4.38
2022-10-28T07:30:25.312Z,4.32
2022-10-28T07:32:52.295Z,3.97
2022-10-28T07:35:19.370Z,4.68
2022-10-28T07:37:46.168Z,4.63
2022-10-28T07:40:13.362Z,3.85
2022-10-28T07:42:39.994Z,4.20
2022-10-28T07:45:07.029Z,4.97
2022-10-28T07:47:33.583Z,4.72
2022-10-28T07:50:00.183Z,4.97
2022-10-28T07:52:26.715Z,4.38
2022-10-28T07:54:53.394Z,5.30
2022-10-28T07:57:19.945Z,4.93
2022-10-28T07:59:46.730Z,4.30
2022-10-28T08:02:21.997Z,3.72
2022-10-28T08:04:48.684Z,4.43
2022-10-28T08:07:15.910Z,3.92
2022-10-28T08:09:42.748Z,4.10
2022-10-28T08:12:10.771Z,4.22
2022-10-28T08:14:37.530Z,4.15
2022-10-28T08:17:04.132Z,4.68
2022-10-28T08:19:30.786Z,4.00
2022-10-28T08:21:57.385Z,4.45
2022-10-28T08:24:24.300Z,6.50
2022-10-28T08:26:51.219Z,7.60
2022-10-28T08:29:17.813Z,7.75
2022-10-28T08:31:44.407Z,8.40
2022-10-28T08:34:11.022Z,6.32
2022-10-28T08:36:37.686Z,5.38
2022-10-28T08:39:04.363Z,5.20
2022-10-28T08:41:54.611Z,4.00
2022-10-28T08:44:30.973Z,4.45
2022-10-28T08:47:19.316Z,3.65
2022-10-28T08:52:28.575Z,4.05
2022-10-28T08:55:03.063Z,3.47
2022-10-28T08:57:55.066Z,3.28
2022-10-28T09:00:30.782Z,2.92
2022-10-28T09:03:03.237Z,3.63
2022-10-28T09:05:29.869Z,3.30
2022-10-28T09:07:57.343Z,3.50
2022-10-28T09:10:49.467Z,3.50
2022-10-28T09:13:37.854Z,3.50
2022-10-28T09:19:04.433Z,2.88
2022-10-28T09:21:36.963Z,2.72
2022-10-28T09:24:17.147Z,3.13
2022-10-28T09:26:56.851Z,3.75
2022-10-28T09:29:49.101Z,3.30
2022-10-28T09:32:15.645Z,3.30
2022-10-28T09:34:47.450Z,3.22
2022-10-28T09:37:24.486Z,3.70
2022-10-28T09:39:54.901Z,3.08
2022-10-28T09:42:26.344Z,3.10
2022-10-28T09:45:03.384Z,2.92
2022-10-28T09:47:34.561Z,3.10
2022-10-28T09:50:04.648Z,3.25
2022-10-28T09:52:36.430Z,3.33
2022-10-28T09:55:08.619Z,3.22
2022-10-28T09:57:35.159Z,3.33
2022-10-28T10:00:01.900Z,3.42
2022-10-28T10:02:33.073Z,3.03
2022-10-28T10:05:01.394Z,3.45
2022-10-28T10:07:52.528Z,3.78
2022-10-28T10:10:25.684Z,3.55
2022-10-28T10:12:54.860Z,3.17
2022-10-28T10:15:37.001Z,3.40
2022-10-28T10:18:06.409Z,3.17
2022-10-28T10:20:47.014Z,3.17
2022-10-28T10:23:33.527Z,3.45
2022-10-28T10:26:06.724Z,3.42
2022-10-28T10:28:39.086Z,3.25
2022-10-28T10:31:07.934Z,3.40
2022-10-28T10:33:36.530Z,3.47
2022-10-28T10:36:05.569Z,2.90
2022-10-28T10:38:32.652Z,4.38
2022-10-28T10:40:59.297Z,2.65
2022-10-28T10:43:32.831Z,3.22
2022-10-28T10:46:04.970Z,4.22
2022-10-28T10:48:36.653Z,3.58
2022-10-28T10:51:08.998Z,3.65
2022-10-28T10:53:36.313Z,2.95
2022-10-28T10:56:05.850Z,3.00
2022-10-28T10:58:38.363Z,3.10
2022-10-28T11:01:07.355Z,2.90
2022-10-28T11:03:54.496Z,3.25
2022-10-28T11:06:27.462Z,3.33
2022-10-28T11:08:59.120Z,2.80
2022-10-28T11:11:40.222Z,2.50
2022-10-28T11:14:25.247Z,3.30
2022-10-28T11:16:54.479Z,2.88
2022-10-28T11:19:31.055Z,3.17
2022-10-28T11:22:21.754Z,3.35
2022-10-28T11:24:55.649Z,3.08
2022-10-28T11:27:51.784Z,3.33
2022-10-28T11:30:37.468Z,2.40
2022-10-28T11:33:29.967Z,3.03
2022-10-28T11:36:08.717Z,3.47
2022-10-28T11:39:12.266Z,3.33
2022-10-28T11:42:04.671Z,3.20
2022-10-28T11:45:03.719Z,3.28
2022-10-28T11:47:33.265Z,2.78
2022-10-28T11:50:10.440Z,4.25
2022-10-28T11:52:45.604Z,2.90
2022-10-28T11:55:38.643Z,3.40
2022-10-28T11:58:32.174Z,5.63
2022-10-28T12:01:27.910Z,4.35
2022-10-28T12:04:08.839Z,3.10
2022-10-28T12:06:54.110Z,3.53
2022-10-28T12:09:30.787Z,3.58
2022-10-28T12:12:26.854Z,3.38
2022-10-28T12:15:41.096Z,3.80
2022-10-28T12:18:26.540Z,3.47
2022-10-28T12:20:59.729Z,3.30
2022-10-28T12:23:27.393Z,3.50
2022-10-28T12:25:57.328Z,3.37
2022-10-28T12:28:39.030Z,3.15
2022-10-28T12:31:19.069Z,3.50
2022-10-28T12:33:48.343Z,3.80
2022-10-28T12:36:36.907Z,3.55
2022-10-28T12:39:12.367Z,3.45
2022-10-28T12:42:03.070Z,3.13
2022-10-28T12:44:30.100Z,2.88
2022-10-28T12:47:20.158Z,3.50
2022-10-28T12:50:00.566Z,3.15
2022-10-28T12:52:31.063Z,3.53
2022-10-28T12:57:52.052Z,3.13
2022-10-28T13:00:21.644Z,3.00
2022-10-28T13:03:05.954Z,3.10
2022-10-28T13:05:43.028Z,3.13
2022-10-28T13:08:17.123Z,3.20
2022-10-28T13:11:10.058Z,2.92
2022-10-28T13:13:42.753Z,2.70
2022-10-28T13:16:34.268Z,3.17
2022-10-28T13:19:21.201Z,3.33
2022-10-28T13:21:58.386Z,2.72
2022-10-28T13:24:35.989Z,2.70
2022-10-28T13:27:03.926Z,2.50
2022-10-28T13:29:33.474Z,2.70
2022-10-28T13:32:00.193Z,2.85
2022-10-28T13:34:38.078Z,2.85
2022-10-28T13:37:06.972Z,2.58
2022-10-28T13:39:36.596Z,2.95
2022-10-28T13:42:15.526Z,3.42
2022-10-28T13:45:03.695Z,2.60
2022-10-28T13:50:06.501Z,2.83
2022-10-28T13:52:34.614Z,3.13
2022-10-28T13:55:24.914Z,3.08
2022-10-28T13:58:04.652Z,3.08
2022-10-28T14:00:31.138Z,2.40
2022-10-28T14:03:00.363Z,3.03
2022-10-28T14:05:47.437Z,2.60
2022-10-28T14:08:40.106Z,3.00
2022-10-28T14:11:09.988Z,2.90
2022-10-28T14:13:54.868Z,2.42
2022-10-28T14:16:34.787Z,2.15
2022-10-28T14:19:15.110Z,3.10
2022-10-28T14:21:50.680Z,2.70
2022-10-28T14:24:40.063Z,2.50
2022-10-28T14:27:06.741Z,2.90
2022-10-28T14:29:49.518Z,2.58
2022-10-28T14:32:31.343Z,2.85
2022-10-28T14:35:13.158Z,3.13
2022-10-28T14:38:20.069Z,2.95
2022-10-28T14:40:54.063Z,3.10
2022-10-28T14:43:34.557Z,3.17
2022-10-28T14:46:13.381Z,2.78
2022-10-28T14:48:42.982Z,2.42
2022-10-28T14:51:14.207Z,2.30
2022-10-28T14:53:41.771Z,3.28
2022-10-28T14:56:30.539Z,4.00
2022-10-28T14:59:24.894Z,2.88
2022-10-28T15:02:11.555Z,2.92
2022-10-28T15:04:39.896Z,2.95
2022-10-28T15:07:11.574Z,3.00
2022-10-28T15:09:39.842Z,3.10
2022-10-28T15:12:09.830Z,3.47
2022-10-28T15:14:39.826Z,3.08
2022-10-28T15:17:18.087Z,2.55
2022-10-28T15:19:46.806Z,3.10
2022-10-28T15:22:15.038Z,2.88
2022-10-28T15:24:44.696Z,3.30
2022-10-28T15:27:14.506Z,3.40
2022-10-28T15:29:42.639Z,3.15
2022-10-28T15:32:26.648Z,3.67
2022-10-28T15:34:53.225Z,3.30
2022-10-28T15:37:30.721Z,2.88
2022-10-28T15:40:20.531Z,3.38
2022-10-28T15:42:58.824Z,3.03
2022-10-28T15:47:54.441Z,3.55
2022-10-28T15:50:36.902Z,3.20
2022-10-28T15:53:09.529Z,3.70
2022-10-28T15:58:31.246Z,3.35
2022-10-28T16:00:58.706Z,3.22
2022-10-28T16:05:58.414Z,3.42
2022-10-28T16:08:27.814Z,3.55
2022-10-28T16:11:08.906Z,3.17
2022-10-28T16:13:37.832Z,3.58
2022-10-28T16:16:07.142Z,3.63
2022-10-28T16:18:39.879Z,3.90
2022-10-28T16:21:06.746Z,3.55
2022-10-28T16:23:36.666Z,4.55
2022-10-28T16:26:03.266Z,4.43
2022-10-28T16:28:31.951Z,4.38
2022-10-28T16:31:00.415Z,4.53
2022-10-28T16:35:58.233Z,4.07
2022-10-28T16:38:25.087Z,4.43
2022-10-28T16:40:52.534Z,3.80
2022-10-28T16:43:22.090Z,4.90
2022-10-28T16:45:50.642Z,4.18
2022-10-28T16:48:19.439Z,3.55
2022-10-28T16:50:51.417Z,5.03
2022-10-28T16:53:18.651Z,3.80
2022-10-28T16:55:45.475Z,3.80
2022-10-28T16:58:12.733Z,3.50
2022-10-28T17:00:39.902Z,4.32
2022-10-28T17:03:07.213Z,3.88
2022-10-28T17:05:33.818Z,3.60
2022-10-28T17:08:02.413Z,3.67
2022-10-28T17:10:31.300Z,3.78
2022-10-28T17:12:57.995Z,3.53
2022-10-28T17:15:24.713Z,3.83
2022-10-28T17:17:52.420Z,3.88
2022-10-28T17:20:19.286Z,3.53
2022-10-28T17:22:45.976Z,4.20
2022-10-28T17:25:12.735Z,4.28
2022-10-28T17:27:39.468Z,3.97
2022-10-28T17:30:07.235Z,4.07
2022-10-28T17:32:33.854Z,4.15
2022-10-28T17:35:00.407Z,3.88
2022-10-28T17:37:27.045Z,4.25
2022-10-28T17:42:25.386Z,4.60
2022-10-28T17:44:51.953Z,4.07
2022-10-28T17:47:18.651Z,4.40
2022-10-28T17:49:45.280Z,3.83
2022-10-28T17:52:12.462Z,3.85
2022-10-28T17:54:39.085Z,3.85
2022-10-28T17:57:05.877Z,4.75
2022-10-28T17:59:32.483Z,4.40
2022-10-28T18:01:59.075Z,4.53
2022-10-28T18:04:28.610Z,4.32
2022-10-28T18:06:56.298Z,4.25
2022-10-28T18:09:23.493Z,5.70
2022-10-28T18:11:50.582Z,4.28
2022-10-28T18:14:18.047Z,3.92
2022-10-28T18:16:45.997Z,4.18
2022-10-28T18:19:13.637Z,3.88
2022-10-28T18:21:40.187Z,4.35
2022-10-28T18:24:07.149Z,4.30
2022-10-28T18:26:36.267Z,3.75
2022-10-28T18:29:08.078Z,4.25
2022-10-28T18:31:34.997Z,4.10
2022-10-28T18:34:02.094Z,4.60
2022-10-28T18:36:34.453Z,4.45
2022-10-28T18:39:03.357Z,4.20
2022-10-28T18:41:31.513Z,4.53
2022-10-28T18:44:03.931Z,4.00
2022-10-28T18:46:32.792Z,4.43
2022-10-28T18:51:31.318Z,4.35
2022-10-28T18:53:57.901Z,4.78
2022-10-28T18:56:27.128Z,5.03
2022-10-28T18:58:53.665Z,4.50
2022-10-28T19:01:22.788Z,5.30
2022-10-28T19:03:56.672Z,4.88
2022-10-28T19:06:24.698Z,4.15
2022-10-28T19:08:53.323Z,4.25
2022-10-28T19:11:20.490Z,5.10
2022-10-28T19:13:47.244Z,5.10
2022-10-28T19:16:13.992Z,4.65
2022-10-28T19:18:40.643Z,4.60
2022-10-28T19:21:11.123Z,4.63
2022-10-28T19:23:38.021Z,4.22
2022-10-28T19:26:05.550Z,5.28
2022-10-28T19:28:43.126Z,4.57
2022-10-28T19:31:11.965Z,4.68
2022-10-28T19:33:39.168Z,4.70
2022-10-28T19:36:21.033Z,4.35
2022-10-28T19:38:48.965Z,4.88
2022-10-28T19:43:43.842Z,4.47
2022-10-28T19:46:16.213Z,4.70
2022-10-28T19:48:45.234Z,5.72
2022-10-28T19:51:16.482Z,4.72
2022-10-28T19:53:54.305Z,5.20
2022-10-28T19:56:21.459Z,4.43
2022-10-28T19:58:59.731Z,4.90
2022-10-28T20:01:28.361Z,5.20
2022-10-28T20:03:55.790Z,5.43
2022-10-28T20:06:25.100Z,5.03
2022-10-28T20:08:51.703Z,5.50
2022-10-28T20:11:24.767Z,5.00
2022-10-28T20:13:57.877Z,4.25
2022-10-28T20:16:25.327Z,5.03
2022-10-28T20:18:54.013Z,4.95
2022-10-28T20:21:22.007Z,5.72
2022-10-28T20:26:18.061Z,5.47
2022-10-28T20:28:44.603Z,5.03
2022-10-28T20:31:13.664Z,5.07
2022-10-28T20:33:42.099Z,4.32
2022-10-28T20:36:32.532Z,5.55
2022-10-28T20:39:03.857Z,4.97
2022-10-28T20:41:32.443Z,4.82
2022-10-28T20:43:59.287Z,5.07
2022-10-28T20:46:26.401Z,4.80
2022-10-28T20:48:56.816Z,5.10
2022-10-28T20:51:25.532Z,5.28
2022-10-28T20:53:52.168Z,4.68
2022-10-28T20:56:23.995Z,5.05
2022-10-28T20:58:51.284Z,5.50
2022-10-28T21:01:20.521Z,5.53
2022-10-28T21:03:47.497Z,4.68
2022-10-28T21:06:15.579Z,4.80
2022-10-28T21:08:43.027Z,4.72
2022-10-28T21:11:11.914Z,4.20
2022-10-28T21:13:38.515Z,4.78
2022-10-28T21:16:06.625Z,5.00
2022-10-28T21:18:33.518Z,4.68
2022-10-28T21:21:00.685Z,4.32
2022-10-28T21:23:28.078Z,4.20
2022-10-28T21:25:56.393Z,4.07
2022-10-28T21:28:23.149Z,3.70
2022-10-28T21:30:50.063Z,3.95
2022-10-28T21:33:18.889Z,4.00
2022-10-28T21:35:54.920Z,4.53
2022-10-28T21:38:21.464Z,4.22
2022-10-28T21:40:48.018Z,4.55
2022-10-28T21:43:15.661Z,4.30
2022-10-28T21:45:42.217Z,4.67
2022-10-28T21:48:08.875Z,4.70
2022-10-28T21:50:35.446Z,4.25
2022-10-28T21:53:04.076Z,4.75
2022-10-28T21:55:45.653Z,4.53
2022-10-28T21:58:13.451Z,4.47
2022-10-28T22:00:40.058Z,4.20
2022-10-28T22:03:06.615Z,4.40
2022-10-28T22:05:33.221Z,3.60
2022-10-28T22:08:02.983Z,4.70
2022-10-28T22:10:31.488Z,4.82
2022-10-28T22:12:58.054Z,4.50
2022-10-28T22:15:24.670Z,3.88
2022-10-28T22:17:51.204Z,3.60
2022-10-28T22:20:17.782Z,4.82
2022-10-28T22:22:44.427Z,4.28
2022-10-28T22:25:11.200Z,3.55
2022-10-28T22:27:38.135Z,4.63
2022-10-28T22:30:05.079Z,4.25
2022-10-28T22:32:31.630Z,4.60
2022-10-28T22:34:58.194Z,4.10
2022-10-28T22:37:24.755Z,4.30
2022-10-28T22:39:51.312Z,4.10
2022-10-28T22:42:17.874Z,4.18
2022-10-28T22:44:44.452Z,4.13
2022-10-28T22:47:11.041Z,4.45
2022-10-28T22:49:37.574Z,4.18
2022-10-28T22:52:04.192Z,4.63
2022-10-28T22:54:30.807Z,4.22
2022-10-28T22:56:57.386Z,4.40
2022-10-28T22:59:23.961Z,3.67
2022-10-28T23:01:52.067Z,4.07
2022-10-28T23:04:18.670Z,4.38
2022-10-28T23:06:45.273Z,4.57
2022-10-28T23:09:11.834Z,4.97
2022-10-28T23:11:38.459Z,5.22
2022-10-28T23:14:05.090Z,4.32
2022-10-28T23:16:31.661Z,5.00
2022-10-28T23:19:00.665Z,4.55
2022-10-28T23:21:27.647Z,4.20
2022-10-28T23:23:59.510Z,4.25
2022-10-28T23:26:27.967Z,4.07
2022-10-28T23:28:56.852Z,4.93
2022-10-28T23:31:24.106Z,4.07
2022-10-28T23:33:51.053Z,3.97
2022-10-28T23:36:17.657Z,4.22
2022-10-28T23:38:44.248Z,3.97
2022-10-28T23:41:15.770Z,5.35
2022-10-28T23:43:42.853Z,5.10
2022-10-28T23:46:09.627Z,4.93
2022-10-28T23:48:36.207Z,4.82
2022-10-28T23:51:02.879Z,4.90
2022-10-28T23:53:30.717Z,4.50
2022-10-28T23:55:57.755Z,5.10
2022-10-28T23:58:24.847Z,5.25
